sensor_id;sensor_type;location;lat;lon;timestamp;P1;durP1;ratioP1;P2;durP2;ratioP2
68319;SDS011;55168;51.120;17.024;2022-11-18T00:00:00;13.3;;;10.9;;
68319;SDS011;55168;51.120;17.024;2022-11-18T00:01:09;12.9;;;9.6;;
68319;SDS011;55168;51.120;17.024;2022-11-18T00:02:00;12.9;;;9.6;;
68319;SDS011;55168;51.120;17.024;2022-11-18T00:03:00;12.9;;;9.6;;
68319;SDS011;55168;51.120;17.024;2022-11-18T00:04:00;12.9;;;9.6;;
68319;SDS011;55168;51.120;17.024;2022-11-18T00:05:00;12.9;;;9.6;;
68319;SDS011;55168;51.120;17.024;2022-11-18T00:06:00;12.5;;;11.2;;
68319;SDS011;55168;51.120;17.024;2022-11-18T00:07:00;12.5;;;11.2;;
68319;SDS011;55168;51.120;17.024;2022-11-18T00:08:00;12.5;;;11.2;;
68319;SDS011;55168;51.120;17.024;2022-11-18T00:09:00;12.5;;;11.2;;
68319;SDS011;55168;51.120;17.024;2022-11-18T00:10:00;12.5;;;11.2;;
68319;SDS011;55168;51.120;17.024;2022-11-18T00:11:05;14.0;;;11.2;;
68319;SDS011;55168;51.120;17.024;2022-11-18T00:12:00;14.0;;;11.2;;
68319;SDS011;55168;51.120;17.024;2022-11-18T00:13:00;14.0;;;11.2;;
68319;SDS011;55168;51.120;17.024;2022-11-18T00:14:00;14.0;;;11.2;;
68319;SDS011;55168;51.120;17.024;2022-11-18T00:15:00;14.0;;;11.2;;
68319;SDS011;55168;51.120;17.024;2022-11-18T00:16:02;13.7;;;11.4;;
68319;SDS011;55168;51.120;17.024;2022-11-18T00:17:03;13.7;;;11.4;;
68319;SDS011;55168;51.120;17.024;2022-11-18T00:18:00;13.7;;;11.4;;
68319;SDS011;55168;51.120;17.024;2022-11-18T00:19:00;13.7;;;11.4;;
68319;SDS011;55168;51.120;17.024;2022-11-18T00:20:00;13.7;;;11.4;;
68319;SDS011;55168;51.120;17.024;2022-11-18T00:21:09;10.5;;;8.1;;
68319;SDS011;55168;51.120;17.024;2022-11-18T00:22:00;10.5;;;8.1;;
68319;SDS011;55168;51.120;17.024;2022-11-18T00:23:00;10.5;;;8.1;;
68319;SDS011;55168;51.120;17.024;2022-11-18T00:24:00;10.5;;;8.1;;
68319;SDS011;55168;51.120;17.024;2022-11-18T00:25:00;10.5;;;8.1;;
68319;SDS011;55168;51.120;17.024;2022-11-18T00:26:02;11.4;;;9.9;;
68319;SDS011;55168;51.120;17.024;2022-11-18T00:27:00;11.4;;;9.9;;
68319;SDS011;55168;51.120;17.024;2022-11-18T00:28:00;11.4;;;9.9;;
68319;SDS011;55168;51.120;17.024;2022-11-18T00:29:00;11.4;;;9.9;;
68319;SDS011;55168;51.120;17.024;2022-11-18T00:30:00;11.4;;;9.9;;
68319;SDS011;55168;51.120;17.024;2022-11-18T00:31:05;11.7;;;10.2;;
68319;SDS011;55168;51.120;17.024;2022-11-18T00:32:00;11.7;;;10.2;;
68319;SDS011;55168;51.120;17.024;2022-11-18T00:33:00;11.7;;;10.2;;
68319;SDS011;55168;51.120;17.024;2022-11-18T00:34:00;11.7;;;10.2;;
68319;SDS011;55168;51.120;17.024;2022-11-18T00:35:00;11.7;;;10.2;;
68319;SDS011;55168;51.120;17.024;2022-11-18T00:36:00;12.2;;;10.5;;
68319;SDS011;55168;51.120;17.024;2022-11-18T00:37:00;12.2;;;10.5;;
68319;SDS011;55168;51.120;17.024;2022-11-18T00:38:00;12.2;;;10.5;;
68319;SDS011;55168;51.120;17.024;2022-11-18T00:39:00;12.2;;;10.5;;
68319;SDS011;55168;51.120;17.024;2022-11-18T00:40:00;12.2;;;10.5;;
68319;SDS011;55168;51.120;17.024;2022-11-18T00:41:04;12.3;;;9.9;;
68319;SDS011;55168;51.120;17.024;2022-11-18T00:42:00;12.3;;;9.9;;
68319;SDS011;55168;51.120;17.024;2022-11-18T00:43:00;12.3;;;9.9;;
68319;SDS011;55168;51.120;17.024;2022-11-18T00:44:00;12.3;;;9.9;;
68319;SDS011;55168;51.120;17.024;2022-11-18T00:45:00;12.3;;;9.9;;
68319;SDS011;55168;51.120;17.024;2022-11-18T00:46:00;13.7;;;10.9;;
68319;SDS011;55168;51.120;17.024;2022-11-18T00:47:00;13.7;;;10.9;;
68319;SDS011;55168;51.120;17.024;2022-11-18T00:48:00;13.7;;;10.9;;
68319;SDS011;55168;51.120;17.024;2022-11-18T00:49:00;13.7;;;10.9;;
68319;SDS011;55168;51.120;17.024;2022-11-18T00:50:00;13.7;;;10.9;;
68319;SDS011;55168;51.120;17.024;2022-11-18T00:51:12;13.6;;;10.7;;
68319;SDS011;55168;51.120;17.024;2022-11-18T00:52:00;13.6;;;10.7;;
68319;SDS011;55168;51.120;17.024;2022-11-18T00:53:00;13.6;;;10.7;;
68319;SDS011;55168;51.120;17.024;2022-11-18T00:54:00;13.6;;;10.7;;
68319;SDS011;55168;51.120;17.024;2022-11-18T00:55:00;13.6;;;10.7;;
68319;SDS011;55168;51.120;17.024;2022-11-18T00:56:00;14.1;;;12.0;;
68319;SDS011;55168;51.120;17.024;2022-11-18T00:57:00;14.1;;;12.0;;
68319;SDS011;55168;51.120;17.024;2022-11-18T00:58:00;14.1;;;12.0;;
68319;SDS011;55168;51.120;17.024;2022-11-18T00:59:00;14.1;;;12.0;;
68319;SDS011;55168;51.120;17.024;2022-11-18T01:00:00;14.1;;;12.0;;
68319;SDS011;55168;51.120;17.024;2022-11-18T01:01:00;10.7;;;9.3;;
68319;SDS011;55168;51.120;17.024;2022-11-18T01:02:00;10.7;;;9.3;;
68319;SDS011;55168;51.120;17.024;2022-11-18T01:03:00;10.7;;;9.3;;
68319;SDS011;55168;51.120;17.024;2022-11-18T01:04:00;10.7;;;9.3;;
68319;SDS011;55168;51.120;17.024;2022-11-18T01:05:00;10.7;;;9.3;;
68319;SDS011;55168;51.120;17.024;2022-11-18T01:06:00;13.7;;;11.4;;
68319;SDS011;55168;51.120;17.024;2022-11-18T01:07:00;13.7;;;11.4;;
68319;SDS011;55168;51.120;17.024;2022-11-18T01:08:00;13.7;;;11.4;;
68319;SDS011;55168;51.120;17.024;2022-11-18T01:09:00;13.7;;;11.4;;
68319;SDS011;55168;51.120;17.024;2022-11-18T01:10:00;13.7;;;11.4;;
68319;SDS011;55168;51.120;17.024;2022-11-18T01:11:00;12.3;;;11.0;;
68319;SDS011;55168;51.120;17.024;2022-11-18T01:12:00;12.3;;;11.0;;
68319;SDS011;55168;51.120;17.024;2022-11-18T01:13:00;12.3;;;11.0;;
68319;SDS011;55168;51.120;17.024;2022-11-18T01:14:00;12.3;;;11.0;;
68319;SDS011;55168;51.120;17.024;2022-11-18T01:15:00;12.3;;;11.0;;
68319;SDS011;55168;51.120;17.024;2022-11-18T01:16:00;12.8;;;11.2;;
68319;SDS011;55168;51.120;17.024;2022-11-18T01:17:00;12.8;;;11.2;;
68319;SDS011;55168;51.120;17.024;2022-11-18T01:18:00;12.8;;;11.2;;
68319;SDS011;55168;51.120;17.024;2022-11-18T01:19:00;12.8;;;11.2;;
68319;SDS011;55168;51.120;17.024;2022-11-18T01:20:00;12.8;;;11.2;;
68319;SDS011;55168;51.120;17.024;2022-11-18T01:21:01;13.9;;;11.4;;
68319;SDS011;55168;51.120;17.024;2022-11-18T01:22:00;13.9;;;11.4;;
68319;SDS011;55168;51.120;17.024;2022-11-18T01:23:00;13.9;;;11.4;;
68319;SDS011;55168;51.120;17.024;2022-11-18T01:24:00;13.9;;;11.4;;
68319;SDS011;55168;51.120;17.024;2022-11-18T01:25:00;13.9;;;11.4;;
68319;SDS011;55168;51.120;17.024;2022-11-18T01:26:03;12.4;;;10.4;;
68319;SDS011;55168;51.120;17.024;2022-11-18T01:27:00;12.4;;;10.4;;
68319;SDS011;55168;51.120;17.024;2022-11-18T01:28:00;12.4;;;10.4;;
68319;SDS011;55168;51.120;17.024;2022-11-18T01:29:00;12.4;;;10.4;;
68319;SDS011;55168;51.120;17.024;2022-11-18T01:30:00;12.4;;;10.4;;
68319;SDS011;55168;51.120;17.024;2022-11-18T01:31:10;11.7;;;9.5;;
68319;SDS011;55168;51.120;17.024;2022-11-18T01:32:00;11.7;;;9.5;;
68319;SDS011;55168;51.120;17.024;2022-11-18T01:33:01;11.7;;;9.5;;
68319;SDS011;55168;51.120;17.024;2022-11-18T01:34:00;11.7;;;9.5;;
68319;SDS011;55168;51.120;17.024;2022-11-18T01:35:00;11.7;;;9.5;;
68319;SDS011;55168;51.120;17.024;2022-11-18T01:36:00;13.6;;;11.0;;
68319;SDS011;55168;51.120;17.024;2022-11-18T01:37:00;13.6;;;11.0;;
68319;SDS011;55168;51.120;17.024;2022-11-18T01:38:00;13.6;;;11.0;;
68319;SDS011;55168;51.120;17.024;2022-11-18T01:39:00;13.6;;;11.0;;
68319;SDS011;55168;51.120;17.024;2022-11-18T01:40:00;13.6;;;11.0;;
68319;SDS011;55168;51.120;17.024;2022-11-18T01:41:00;9.7;;;8.6;;
68319;SDS011;55168;51.120;17.024;2022-11-18T01:42:00;9.7;;;8.6;;
68319;SDS011;55168;51.120;17.024;2022-11-18T01:43:00;9.7;;;8.6;;
68319;SDS011;55168;51.120;17.024;2022-11-18T01:44:04;9.7;;;8.6;;
68319;SDS011;55168;51.120;17.024;2022-11-18T01:45:34;9.7;;;8.6;;
68319;SDS011;55168;51.120;17.024;2022-11-18T01:46:00;11.5;;;8.9;;
68319;SDS011;55168;51.120;17.024;2022-11-18T01:47:00;11.5;;;8.9;;
68319;SDS011;55168;51.120;17.024;2022-11-18T01:48:16;11.5;;;8.9;;
68319;SDS011;55168;51.120;17.024;2022-11-18T01:50:00;11.5;;;8.9;;
68319;SDS011;55168;51.120;17.024;2022-11-18T01:51:03;11.3;;;8.4;;
68319;SDS011;55168;51.120;17.024;2022-11-18T01:52:00;11.3;;;8.4;;
68319;SDS011;55168;51.120;17.024;2022-11-18T01:53:06;11.3;;;8.4;;
68319;SDS011;55168;51.120;17.024;2022-11-18T01:54:12;11.3;;;8.4;;
68319;SDS011;55168;51.120;17.024;2022-11-18T01:55:06;11.3;;;8.4;;
68319;SDS011;55168;51.120;17.024;2022-11-18T01:56:03;12.8;;;11.5;;
68319;SDS011;55168;51.120;17.024;2022-11-18T01:57:04;12.8;;;11.5;;
68319;SDS011;55168;51.120;17.024;2022-11-18T01:58:06;12.8;;;11.5;;
68319;SDS011;55168;51.120;17.024;2022-11-18T01:59:04;12.8;;;11.5;;
68319;SDS011;55168;51.120;17.024;2022-11-18T02:00:02;12.8;;;11.5;;
68319;SDS011;55168;51.120;17.024;2022-11-18T02:01:01;12.8;;;11.4;;
68319;SDS011;55168;51.120;17.024;2022-11-18T02:02:02;12.8;;;11.4;;
68319;SDS011;55168;51.120;17.024;2022-11-18T02:03:01;12.8;;;11.4;;
68319;SDS011;55168;51.120;17.024;2022-11-18T02:04:00;12.8;;;11.4;;
68319;SDS011;55168;51.120;17.024;2022-11-18T02:05:02;12.8;;;11.4;;
68319;SDS011;55168;51.120;17.024;2022-11-18T02:06:01;13.3;;;11.1;;
68319;SDS011;55168;51.120;17.024;2022-11-18T02:07:00;13.3;;;11.1;;
68319;SDS011;55168;51.120;17.024;2022-11-18T02:08:00;13.3;;;11.1;;
68319;SDS011;55168;51.120;17.024;2022-11-18T02:09:00;13.3;;;11.1;;
68319;SDS011;55168;51.120;17.024;2022-11-18T02:10:02;13.3;;;11.1;;
68319;SDS011;55168;51.120;17.024;2022-11-18T02:11:00;13.6;;;11.1;;
68319;SDS011;55168;51.120;17.024;2022-11-18T02:12:00;13.6;;;11.1;;
68319;SDS011;55168;51.120;17.024;2022-11-18T02:13:00;13.6;;;11.1;;
68319;SDS011;55168;51.120;17.024;2022-11-18T02:14:03;13.6;;;11.1;;
68319;SDS011;55168;51.120;17.024;2022-11-18T02:15:01;13.6;;;11.1;;
68319;SDS011;55168;51.120;17.024;2022-11-18T02:16:11;13.0;;;11.6;;
68319;SDS011;55168;51.120;17.024;2022-11-18T02:18:09;13.0;;;11.6;;
68319;SDS011;55168;51.120;17.024;2022-11-18T02:19:03;13.0;;;11.6;;
68319;SDS011;55168;51.120;17.024;2022-11-18T02:23:12;12.2;;;10.6;;
68319;SDS011;55168;51.120;17.024;2022-11-18T02:24:19;12.2;;;10.6;;
68319;SDS011;55168;51.120;17.024;2022-11-18T02:28:16;15.9;;;12.3;;
68319;SDS011;55168;51.120;17.024;2022-11-18T02:30:04;15.9;;;12.3;;
68319;SDS011;55168;51.120;17.024;2022-11-18T02:31:05;14.2;;;12.2;;
68319;SDS011;55168;51.120;17.024;2022-11-18T02:32:07;14.2;;;12.2;;
68319;SDS011;55168;51.120;17.024;2022-11-18T02:33:10;14.2;;;12.2;;
68319;SDS011;55168;51.120;17.024;2022-11-18T02:34:04;14.2;;;12.2;;
68319;SDS011;55168;51.120;17.024;2022-11-18T02:36:04;12.8;;;11.3;;
68319;SDS011;55168;51.120;17.024;2022-11-18T02:37:06;12.8;;;11.3;;
68319;SDS011;55168;51.120;17.024;2022-11-18T02:38:05;12.8;;;11.3;;
68319;SDS011;55168;51.120;17.024;2022-11-18T02:39:07;12.8;;;11.3;;
68319;SDS011;55168;51.120;17.024;2022-11-18T02:40:09;12.8;;;11.3;;
68319;SDS011;55168;51.120;17.024;2022-11-18T02:41:04;9.9;;;8.8;;
68319;SDS011;55168;51.120;17.024;2022-11-18T02:42:04;9.9;;;8.8;;
68319;SDS011;55168;51.120;17.024;2022-11-18T02:43:05;9.9;;;8.8;;
68319;SDS011;55168;51.120;17.024;2022-11-18T02:44:04;9.9;;;8.8;;
68319;SDS011;55168;51.120;17.024;2022-11-18T02:45:04;9.9;;;8.8;;
68319;SDS011;55168;51.120;17.024;2022-11-18T02:46:05;10.7;;;9.6;;
68319;SDS011;55168;51.120;17.024;2022-11-18T02:47:02;10.7;;;9.6;;
68319;SDS011;55168;51.120;17.024;2022-11-18T02:48:04;10.7;;;9.6;;
68319;SDS011;55168;51.120;17.024;2022-11-18T02:49:02;10.7;;;9.6;;
68319;SDS011;55168;51.120;17.024;2022-11-18T02:50:04;10.7;;;9.6;;
68319;SDS011;55168;51.120;17.024;2022-11-18T02:51:03;13.7;;;12.1;;
68319;SDS011;55168;51.120;17.024;2022-11-18T02:52:00;13.7;;;12.1;;
68319;SDS011;55168;51.120;17.024;2022-11-18T02:53:02;13.7;;;12.1;;
68319;SDS011;55168;51.120;17.024;2022-11-18T02:54:04;13.7;;;12.1;;
68319;SDS011;55168;51.120;17.024;2022-11-18T02:55:02;13.7;;;12.1;;
68319;SDS011;55168;51.120;17.024;2022-11-18T02:56:01;11.4;;;10.2;;
68319;SDS011;55168;51.120;17.024;2022-11-18T02:57:01;11.4;;;10.2;;
68319;SDS011;55168;51.120;17.024;2022-11-18T02:58:01;11.4;;;10.2;;
68319;SDS011;55168;51.120;17.024;2022-11-18T02:59:00;11.4;;;10.2;;
68319;SDS011;55168;51.120;17.024;2022-11-18T03:00:00;11.4;;;10.2;;
68319;SDS011;55168;51.120;17.024;2022-11-18T03:01:00;13.5;;;10.6;;
68319;SDS011;55168;51.120;17.024;2022-11-18T03:02:00;13.5;;;10.6;;
68319;SDS011;55168;51.120;17.024;2022-11-18T03:04:00;13.5;;;10.6;;
68319;SDS011;55168;51.120;17.024;2022-11-18T03:05:00;13.5;;;10.6;;
68319;SDS011;55168;51.120;17.024;2022-11-18T03:06:07;14.8;;;12.2;;
68319;SDS011;55168;51.120;17.024;2022-11-18T03:07:05;14.8;;;12.2;;
68319;SDS011;55168;51.120;17.024;2022-11-18T03:08:07;14.8;;;12.2;;
68319;SDS011;55168;51.120;17.024;2022-11-18T03:09:07;14.8;;;12.2;;
68319;SDS011;55168;51.120;17.024;2022-11-18T03:10:00;14.8;;;12.2;;
68319;SDS011;55168;51.120;17.024;2022-11-18T03:11:06;14.5;;;12.2;;
68319;SDS011;55168;51.120;17.024;2022-11-18T03:12:13;14.5;;;12.2;;
68319;SDS011;55168;51.120;17.024;2022-11-18T03:13:04;14.5;;;12.2;;
68319;SDS011;55168;51.120;17.024;2022-11-18T03:16:06;13.9;;;11.3;;
68319;SDS011;55168;51.120;17.024;2022-11-18T03:17:03;13.9;;;11.3;;
68319;SDS011;55168;51.120;17.024;2022-11-18T03:19:04;13.9;;;11.3;;
68319;SDS011;55168;51.120;17.024;2022-11-18T03:20:13;13.2;;;11.4;;
68319;SDS011;55168;51.120;17.024;2022-11-18T03:21:05;13.2;;;11.4;;
68319;SDS011;55168;51.120;17.024;2022-11-18T03:22:04;13.2;;;11.4;;
68319;SDS011;55168;51.120;17.024;2022-11-18T03:23:05;13.2;;;11.4;;
68319;SDS011;55168;51.120;17.024;2022-11-18T03:24:06;13.2;;;11.4;;
68319;SDS011;55168;51.120;17.024;2022-11-18T03:25:08;15.2;;;12.6;;
68319;SDS011;55168;51.120;17.024;2022-11-18T03:26:03;15.2;;;12.6;;
68319;SDS011;55168;51.120;17.024;2022-11-18T03:27:05;15.2;;;12.6;;
68319;SDS011;55168;51.120;17.024;2022-11-18T03:28:18;15.2;;;12.6;;
68319;SDS011;55168;51.120;17.024;2022-11-18T03:29:07;15.2;;;12.6;;
68319;SDS011;55168;51.120;17.024;2022-11-18T03:30:05;14.3;;;12.4;;
68319;SDS011;55168;51.120;17.024;2022-11-18T03:31:05;14.3;;;12.4;;
68319;SDS011;55168;51.120;17.024;2022-11-18T03:32:05;14.3;;;12.4;;
68319;SDS011;55168;51.120;17.024;2022-11-18T03:33:05;14.3;;;12.4;;
68319;SDS011;55168;51.120;17.024;2022-11-18T03:34:05;14.3;;;12.4;;
68319;SDS011;55168;51.120;17.024;2022-11-18T03:35:02;13.6;;;11.8;;
68319;SDS011;55168;51.120;17.024;2022-11-18T03:36:03;13.6;;;11.8;;
68319;SDS011;55168;51.120;17.024;2022-11-18T03:37:01;13.6;;;11.8;;
68319;SDS011;55168;51.120;17.024;2022-11-18T03:38:04;13.6;;;11.8;;
68319;SDS011;55168;51.120;17.024;2022-11-18T03:39:02;13.6;;;11.8;;
68319;SDS011;55168;51.120;17.024;2022-11-18T03:40:08;15.0;;;12.4;;
68319;SDS011;55168;51.120;17.024;2022-11-18T03:41:03;15.0;;;12.4;;
68319;SDS011;55168;51.120;17.024;2022-11-18T03:42:05;15.0;;;12.4;;
68319;SDS011;55168;51.120;17.024;2022-11-18T03:43:05;15.0;;;12.4;;
68319;SDS011;55168;51.120;17.024;2022-11-18T03:44:05;15.0;;;12.4;;
68319;SDS011;55168;51.120;17.024;2022-11-18T03:45:05;15.5;;;12.6;;
68319;SDS011;55168;51.120;17.024;2022-11-18T03:46:13;15.5;;;12.6;;
68319;SDS011;55168;51.120;17.024;2022-11-18T03:47:05;15.5;;;12.6;;
68319;SDS011;55168;51.120;17.024;2022-11-18T03:48:11;15.5;;;12.6;;
68319;SDS011;55168;51.120;17.024;2022-11-18T03:49:00;15.5;;;12.6;;
68319;SDS011;55168;51.120;17.024;2022-11-18T03:50:07;15.8;;;13.3;;
68319;SDS011;55168;51.120;17.024;2022-11-18T03:51:10;15.8;;;13.3;;
68319;SDS011;55168;51.120;17.024;2022-11-18T03:52:05;15.8;;;13.3;;
68319;SDS011;55168;51.120;17.024;2022-11-18T03:53:00;15.8;;;13.3;;
68319;SDS011;55168;51.120;17.024;2022-11-18T03:54:04;15.8;;;13.3;;
68319;SDS011;55168;51.120;17.024;2022-11-18T03:55:04;15.0;;;12.0;;
68319;SDS011;55168;51.120;17.024;2022-11-18T03:56:05;15.0;;;12.0;;
68319;SDS011;55168;51.120;17.024;2022-11-18T03:57:02;15.0;;;12.0;;
68319;SDS011;55168;51.120;17.024;2022-11-18T03:59:06;15.0;;;12.0;;
68319;SDS011;55168;51.120;17.024;2022-11-18T04:00:10;15.5;;;13.4;;
68319;SDS011;55168;51.120;17.024;2022-11-18T04:01:03;15.5;;;13.4;;
68319;SDS011;55168;51.120;17.024;2022-11-18T04:02:05;15.5;;;13.4;;
68319;SDS011;55168;51.120;17.024;2022-11-18T04:03:00;15.5;;;13.4;;
68319;SDS011;55168;51.120;17.024;2022-11-18T04:04:00;15.5;;;13.4;;
68319;SDS011;55168;51.120;17.024;2022-11-18T04:05:01;17.2;;;13.4;;
68319;SDS011;55168;51.120;17.024;2022-11-18T04:06:08;17.2;;;13.4;;
68319;SDS011;55168;51.120;17.024;2022-11-18T04:07:08;17.2;;;13.4;;
68319;SDS011;55168;51.120;17.024;2022-11-18T04:08:01;17.2;;;13.4;;
68319;SDS011;55168;51.120;17.024;2022-11-18T04:09:09;17.2;;;13.4;;
68319;SDS011;55168;51.120;17.024;2022-11-18T04:10:08;17.6;;;13.6;;
68319;SDS011;55168;51.120;17.024;2022-11-18T04:11:07;17.6;;;13.6;;
68319;SDS011;55168;51.120;17.024;2022-11-18T04:12:06;17.6;;;13.6;;
68319;SDS011;55168;51.120;17.024;2022-11-18T04:13:05;17.6;;;13.6;;
68319;SDS011;55168;51.120;17.024;2022-11-18T04:14:00;17.6;;;13.6;;
68319;SDS011;55168;51.120;17.024;2022-11-18T04:15:00;18.8;;;15.3;;
68319;SDS011;55168;51.120;17.024;2022-11-18T04:16:00;18.8;;;15.3;;
68319;SDS011;55168;51.120;17.024;2022-11-18T04:17:05;18.8;;;15.3;;
68319;SDS011;55168;51.120;17.024;2022-11-18T04:18:00;18.8;;;15.3;;
68319;SDS011;55168;51.120;17.024;2022-11-18T04:19:00;18.8;;;15.3;;
68319;SDS011;55168;51.120;17.024;2022-11-18T04:20:00;19.9;;;15.2;;
68319;SDS011;55168;51.120;17.024;2022-11-18T04:21:00;19.9;;;15.2;;
68319;SDS011;55168;51.120;17.024;2022-11-18T04:22:00;19.9;;;15.2;;
68319;SDS011;55168;51.120;17.024;2022-11-18T04:23:00;19.9;;;15.2;;
68319;SDS011;55168;51.120;17.024;2022-11-18T04:24:00;19.9;;;15.2;;
68319;SDS011;55168;51.120;17.024;2022-11-18T04:25:00;19.3;;;15.0;;
68319;SDS011;55168;51.120;17.024;2022-11-18T04:26:00;19.3;;;15.0;;
68319;SDS011;55168;51.120;17.024;2022-11-18T04:27:00;19.3;;;15.0;;
68319;SDS011;55168;51.120;17.024;2022-11-18T04:28:00;19.3;;;15.0;;
68319;SDS011;55168;51.120;17.024;2022-11-18T04:29:00;19.3;;;15.0;;
68319;SDS011;55168;51.120;17.024;2022-11-18T04:30:00;21.0;;;15.7;;
68319;SDS011;55168;51.120;17.024;2022-11-18T04:31:00;21.0;;;15.7;;
68319;SDS011;55168;51.120;17.024;2022-11-18T04:32:00;21.0;;;15.7;;
68319;SDS011;55168;51.120;17.024;2022-11-18T04:33:00;21.0;;;15.7;;
68319;SDS011;55168;51.120;17.024;2022-11-18T04:34:00;21.0;;;15.7;;
68319;SDS011;55168;51.120;17.024;2022-11-18T04:35:00;15.3;;;11.5;;
68319;SDS011;55168;51.120;17.024;2022-11-18T04:36:00;15.3;;;11.5;;
68319;SDS011;55168;51.120;17.024;2022-11-18T04:37:00;15.3;;;11.5;;
68319;SDS011;55168;51.120;17.024;2022-11-18T04:38:00;15.3;;;11.5;;
68319;SDS011;55168;51.120;17.024;2022-11-18T04:39:00;15.3;;;11.5;;
68319;SDS011;55168;51.120;17.024;2022-11-18T04:40:00;22.2;;;16.9;;
68319;SDS011;55168;51.120;17.024;2022-11-18T04:41:00;22.2;;;16.9;;
68319;SDS011;55168;51.120;17.024;2022-11-18T04:42:00;22.2;;;16.9;;
68319;SDS011;55168;51.120;17.024;2022-11-18T04:43:00;22.2;;;16.9;;
68319;SDS011;55168;51.120;17.024;2022-11-18T04:44:00;22.2;;;16.9;;
68319;SDS011;55168;51.120;17.024;2022-11-18T04:45:00;20.8;;;14.8;;
68319;SDS011;55168;51.120;17.024;2022-11-18T04:46:00;20.8;;;14.8;;
68319;SDS011;55168;51.120;17.024;2022-11-18T04:47:03;20.8;;;14.8;;
68319;SDS011;55168;51.120;17.024;2022-11-18T04:48:00;20.8;;;14.8;;
68319;SDS011;55168;51.120;17.024;2022-11-18T04:49:00;20.8;;;14.8;;
68319;SDS011;55168;51.120;17.024;2022-11-18T04:50:00;21.7;;;15.7;;
68319;SDS011;55168;51.120;17.024;2022-11-18T04:51:04;21.7;;;15.7;;
68319;SDS011;55168;51.120;17.024;2022-11-18T04:52:01;21.7;;;15.7;;
68319;SDS011;55168;51.120;17.024;2022-11-18T04:53:00;21.7;;;15.7;;
68319;SDS011;55168;51.120;17.024;2022-11-18T04:54:00;21.7;;;15.7;;
68319;SDS011;55168;51.120;17.024;2022-11-18T04:55:00;18.8;;;13.2;;
68319;SDS011;55168;51.120;17.024;2022-11-18T04:56:05;18.8;;;13.2;;
68319;SDS011;55168;51.120;17.024;2022-11-18T04:57:00;18.8;;;13.2;;
68319;SDS011;55168;51.120;17.024;2022-11-18T04:58:00;18.8;;;13.2;;
68319;SDS011;55168;51.120;17.024;2022-11-18T04:59:01;18.8;;;13.2;;
68319;SDS011;55168;51.120;17.024;2022-11-18T05:00:00;26.6;;;17.8;;
68319;SDS011;55168;51.120;17.024;2022-11-18T05:01:00;26.6;;;17.8;;
68319;SDS011;55168;51.120;17.024;2022-11-18T05:02:00;26.6;;;17.8;;
68319;SDS011;55168;51.120;17.024;2022-11-18T05:03:00;26.6;;;17.8;;
68319;SDS011;55168;51.120;17.024;2022-11-18T05:04:00;26.6;;;17.8;;
68319;SDS011;55168;51.120;17.024;2022-11-18T05:05:00;22.7;;;17.5;;
68319;SDS011;55168;51.120;17.024;2022-11-18T05:06:00;22.7;;;17.5;;
68319;SDS011;55168;51.120;17.024;2022-11-18T05:07:02;22.7;;;17.5;;
68319;SDS011;55168;51.120;17.024;2022-11-18T05:08:00;22.7;;;17.5;;
68319;SDS011;55168;51.120;17.024;2022-11-18T05:09:00;22.7;;;17.5;;
68319;SDS011;55168;51.120;17.024;2022-11-18T05:10:00;22.8;;;17.2;;
68319;SDS011;55168;51.120;17.024;2022-11-18T05:11:04;22.8;;;17.2;;
68319;SDS011;55168;51.120;17.024;2022-11-18T05:12:00;22.8;;;17.2;;
68319;SDS011;55168;51.120;17.024;2022-11-18T05:13:00;22.8;;;17.2;;
68319;SDS011;55168;51.120;17.024;2022-11-18T05:14:00;22.8;;;17.2;;
68319;SDS011;55168;51.120;17.024;2022-11-18T05:15:00;23.5;;;16.4;;
68319;SDS011;55168;51.120;17.024;2022-11-18T05:16:00;23.5;;;16.4;;
68319;SDS011;55168;51.120;17.024;2022-11-18T05:17:01;23.5;;;16.4;;
68319;SDS011;55168;51.120;17.024;2022-11-18T05:18:00;23.5;;;16.4;;
68319;SDS011;55168;51.120;17.024;2022-11-18T05:19:02;23.5;;;16.4;;
68319;SDS011;55168;51.120;17.024;2022-11-18T05:20:00;25.9;;;19.4;;
68319;SDS011;55168;51.120;17.024;2022-11-18T05:21:03;25.9;;;19.4;;
68319;SDS011;55168;51.120;17.024;2022-11-18T05:22:00;25.9;;;19.4;;
68319;SDS011;55168;51.120;17.024;2022-11-18T05:23:00;25.9;;;19.4;;
68319;SDS011;55168;51.120;17.024;2022-11-18T05:24:01;25.9;;;19.4;;
68319;SDS011;55168;51.120;17.024;2022-11-18T05:25:00;21.4;;;15.7;;
68319;SDS011;55168;51.120;17.024;2022-11-18T05:26:04;21.4;;;15.7;;
68319;SDS011;55168;51.120;17.024;2022-11-18T05:27:00;21.4;;;15.7;;
68319;SDS011;55168;51.120;17.024;2022-11-18T05:28:00;21.4;;;15.7;;
68319;SDS011;55168;51.120;17.024;2022-11-18T05:29:00;21.4;;;15.7;;
68319;SDS011;55168;51.120;17.024;2022-11-18T05:30:00;23.1;;;16.1;;
68319;SDS011;55168;51.120;17.024;2022-11-18T05:31:05;23.1;;;16.1;;
68319;SDS011;55168;51.120;17.024;2022-11-18T05:32:00;23.1;;;16.1;;
68319;SDS011;55168;51.120;17.024;2022-11-18T05:33:00;23.1;;;16.1;;
68319;SDS011;55168;51.120;17.024;2022-11-18T05:34:00;23.1;;;16.1;;
68319;SDS011;55168;51.120;17.024;2022-11-18T05:35:00;18.6;;;12.6;;
68319;SDS011;55168;51.120;17.024;2022-11-18T05:36:02;18.6;;;12.6;;
68319;SDS011;55168;51.120;17.024;2022-11-18T05:37:00;18.6;;;12.6;;
68319;SDS011;55168;51.120;17.024;2022-11-18T05:38:00;18.6;;;12.6;;
68319;SDS011;55168;51.120;17.024;2022-11-18T05:39:00;18.6;;;12.6;;
68319;SDS011;55168;51.120;17.024;2022-11-18T05:40:00;21.2;;;14.6;;
68319;SDS011;55168;51.120;17.024;2022-11-18T05:41:00;21.2;;;14.6;;
68319;SDS011;55168;51.120;17.024;2022-11-18T05:42:00;21.2;;;14.6;;
68319;SDS011;55168;51.120;17.024;2022-11-18T05:43:00;21.2;;;14.6;;
68319;SDS011;55168;51.120;17.024;2022-11-18T05:44:01;21.2;;;14.6;;
68319;SDS011;55168;51.120;17.024;2022-11-18T05:45:00;18.1;;;12.6;;
68319;SDS011;55168;51.120;17.024;2022-11-18T05:46:00;18.1;;;12.6;;
68319;SDS011;55168;51.120;17.024;2022-11-18T05:47:00;18.1;;;12.6;;
68319;SDS011;55168;51.120;17.024;2022-11-18T05:48:00;18.1;;;12.6;;
68319;SDS011;55168;51.120;17.024;2022-11-18T05:49:00;18.1;;;12.6;;
68319;SDS011;55168;51.120;17.024;2022-11-18T05:50:00;18.9;;;12.9;;
68319;SDS011;55168;51.120;17.024;2022-11-18T05:51:00;18.9;;;12.9;;
68319;SDS011;55168;51.120;17.024;2022-11-18T05:52:00;18.9;;;12.9;;
68319;SDS011;55168;51.120;17.024;2022-11-18T05:53:00;18.9;;;12.9;;
68319;SDS011;55168;51.120;17.024;2022-11-18T05:54:03;18.9;;;12.9;;
68319;SDS011;55168;51.120;17.024;2022-11-18T05:55:00;21.0;;;16.2;;
68319;SDS011;55168;51.120;17.024;2022-11-18T05:57:00;21.0;;;16.2;;
68319;SDS011;55168;51.120;17.024;2022-11-18T05:58:00;21.0;;;16.2;;
68319;SDS011;55168;51.120;17.024;2022-11-18T05:59:00;21.0;;;16.2;;
68319;SDS011;55168;51.120;17.024;2022-11-18T06:00:00;21.9;;;15.5;;
68319;SDS011;55168;51.120;17.024;2022-11-18T06:01:02;21.9;;;15.5;;
68319;SDS011;55168;51.120;17.024;2022-11-18T06:02:04;21.9;;;15.5;;
68319;SDS011;55168;51.120;17.024;2022-11-18T06:03:00;21.9;;;15.5;;
68319;SDS011;55168;51.120;17.024;2022-11-18T06:04:01;21.9;;;15.5;;
68319;SDS011;55168;51.120;17.024;2022-11-18T06:05:02;22.4;;;15.6;;
68319;SDS011;55168;51.120;17.024;2022-11-18T06:06:02;22.4;;;15.6;;
68319;SDS011;55168;51.120;17.024;2022-11-18T06:07:04;22.4;;;15.6;;
68319;SDS011;55168;51.120;17.024;2022-11-18T06:08:01;22.4;;;15.6;;
68319;SDS011;55168;51.120;17.024;2022-11-18T06:09:03;22.4;;;15.6;;
68319;SDS011;55168;51.120;17.024;2022-11-18T06:10:00;20.3;;;14.3;;
68319;SDS011;55168;51.120;17.024;2022-11-18T06:11:00;20.3;;;14.3;;
68319;SDS011;55168;51.120;17.024;2022-11-18T06:12:02;20.3;;;14.3;;